Time;durP1;ratioP1;P1;durP2;ratioP2;P2;SDS_P1;SDS_P2;PMS_P1;PMS_P2;Temp;Humidity;BMP_temperature;BMP_pressure;BME280_temperature;BME280_humidity;BME280_pressure;Samples;Min_cycle;Max_cycle;Signal;HPM_P1;HPM_P2
2022/05/23 00:01:19;;;;;;;2.38;1.20;;;14.00;93.00;;;;;;5047483;28;20159;-82
2022/05/23 00:03:44;;;;;;;2.63;1.33;;;14.00;92.80;;;;;;5047376;28;20097;-83
2022/05/23 00:06:11;;;;;;;1.55;1.13;;;14.00;92.70;;;;;;5043454;28;20534;-81
2022/05/23 00:08:37;;;;;;;4.57;1.15;;;14.00;92.90;;;;;;5047211;28;20372;-82
2022/05/23 00:11:02;;;;;;;5.28;1.70;;;14.00;92.70;;;;;;5047577;28;20032;-83
2022/05/23 00:13:28;;;;;;;2.35;1.00;;;14.00;92.70;;;;;;5044774;28;20110;-83
2022/05/23 00:15:53;;;;;;;1.80;1.20;;;13.90;92.80;;;;;;5049852;28;20150;-82
2022/05/23 00:18:19;;;;;;;3.60;1.40;;;14.00;92.90;;;;;;5053703;28;20036;-82
2022/05/23 00:20:44;;;;;;;5.03;1.95;;;13.90;93.00;;;;;;5050523;28;20028;-83
2022/05/23 00:23:10;;;;;;;2.97;1.60;;;13.90;93.10;;;;;;5052065;28;20033;-82
2022/05/23 00:25:35;;;;;;;1.80;1.25;;;13.80;93.10;;;;;;5050741;28;20111;-82
2022/05/23 00:28:01;;;;;;;3.78;1.70;;;13.80;93.20;;;;;;5052158;28;20129;-82
2022/05/23 00:30:27;;;;;;;1.95;1.80;;;13.80;93.30;;;;;;5051502;28;20033;-82
2022/05/23 00:35:38;;;;;;;4.50;1.70;;;13.70;93.50;;;;;;5048652;28;20051;-82
2022/05/23 00:38:04;;;;;;;4.55;1.48;;;13.70;93.60;;;;;;5049884;28;20086;-82
2022/05/23 00:43:13;;;;;;;2.03;1.38;;;13.60;93.70;;;;;;5064181;28;20029;-82
2022/05/23 00:43:41;;;;;;;2.55;1.30;;;13.60;93.80;;;;;;5045391;28;20029;-82
2022/05/23 00:46:07;;;;;;;2.25;1.60;;;13.50;94.00;;;;;;5050233;28;20090;-84
2022/05/23 00:48:33;;;;;;;4.47;1.70;;;13.50;94.20;;;;;;5045670;28;20040;-85
2022/05/23 00:51:01;;;;;;;3.05;1.65;;;13.50;94.30;;;;;;5042360;28;20037;-85
2022/05/23 00:53:40;;;;;;;5.07;1.88;;;13.40;94.30;;;;;;5042190;28;20197;-83
2022/05/23 00:56:09;;;;;;;2.17;1.50;;;13.40;94.30;;;;;;5043456;28;20558;-82
2022/05/23 00:58:43;;;;;;;4.07;1.92;;;13.30;94.30;;;;;;5050785;28;20036;-82
2022/05/23 01:01:11;;;;;;;2.55;1.55;;;13.30;94.40;;;;;;5050762;28;20029;-83
2022/05/23 01:03:37;;;;;;;8.65;2.33;;;13.20;94.50;;;;;;5042929;28;20033;-82
2022/05/23 01:06:05;;;;;;;4.18;1.60;;;13.20;94.70;;;;;;5051217;28;20036;-84
2022/05/23 01:08:33;;;;;;;3.05;1.70;;;13.10;94.80;;;;;;5050684;28;20037;-82
2022/05/23 01:10:58;;;;;;;2.28;1.77;;;13.10;94.90;;;;;;5049789;28;20429;-83
2022/05/23 01:13:24;;;;;;;1.20;1.10;;;13.10;95.00;;;;;;5051423;28;20037;-84
2022/05/23 01:15:50;;;;;;;4.10;1.63;;;13.00;95.00;;;;;;5047255;28;20189;-82
2022/05/23 01:18:16;;;;;;;6.18;2.00;;;13.00;95.10;;;;;;5040072;28;20432;-82
2022/05/23 01:20:46;;;;;;;4.50;1.75;;;13.00;95.10;;;;;;5052133;28;20037;-81
2022/05/23 01:23:43;;;;;;;2.88;1.60;;;12.90;95.10;;;;;;5046667;28;20029;-81
2022/05/23 01:26:08;;;;;;;2.30;1.65;;;12.90;95.20;;;;;;5040622;28;20029;-81
2022/05/23 01:28:38;;;;;;;1.52;1.40;;;12.90;95.20;;;;;;5051577;28;20048;-82
2022/05/23 01:31:04;;;;;;;4.18;1.73;;;12.90;95.30;;;;;;5039096;28;20032;-81
2022/05/23 01:33:30;;;;;;;2.78;1.83;;;12.80;95.40;;;;;;5040967;28;20029;-82
2022/05/23 01:35:57;;;;;;;2.47;1.80;;;12.80;95.50;;;;;;5040987;28;20044;-82
2022/05/23 01:38:26;;;;;;;2.22;1.50;;;12.80;95.40;;;;;;5050388;28;20166;-86
2022/05/23 01:40:53;;;;;;;3.08;1.60;;;12.70;95.50;;;;;;5050263;28;20040;-83
2022/05/23 01:43:19;;;;;;;3.90;1.77;;;12.70;95.50;;;;;;5046948;28;20105;-84
2022/05/23 01:45:44;;;;;;;1.73;1.40;;;12.70;95.50;;;;;;5048971;28;20037;-84
2022/05/23 01:48:10;;;;;;;4.25;1.45;;;12.60;95.70;;;;;;5049878;28;20082;-86
2022/05/23 01:50:36;;;;;;;3.30;1.90;;;12.60;95.70;;;;;;5047371;28;20478;-82
2022/05/23 01:53:01;;;;;;;3.10;1.90;;;12.60;95.70;;;;;;5048253;28;20171;-84
2022/05/23 01:55:27;;;;;;;4.70;2.85;;;12.60;95.90;;;;;;5050720;28;20033;-85
2022/05/23 01:57:52;;;;;;;2.70;1.90;;;12.60;95.90;;;;;;5051493;28;20537;-84
2022/05/23 02:03:03;;;;;;;2.20;1.50;;;12.50;96.00;;;;;;5040264;28;20036;-86
2022/05/23 02:05:28;;;;;;;3.13;1.70;;;12.50;96.00;;;;;;5052859;28;20037;-86
2022/05/23 02:07:55;;;;;;;6.70;1.80;;;12.50;96.10;;;;;;5066841;28;20044;-84
2022/05/23 02:10:21;;;;;;;2.50;1.60;;;12.40;96.20;;;;;;5050674;28;20033;-83
2022/05/23 02:12:47;;;;;;;2.35;1.60;;;12.40;96.20;;;;;;5050284;28;20044;-83
2022/05/23 02:15:13;;;;;;;2.88;1.65;;;12.40;96.30;;;;;;5041619;28;20029;-83
2022/05/23 02:17:38;;;;;;;3.63;1.83;;;12.40;96.30;;;;;;5050061;28;20040;-84
2022/05/23 02:20:06;;;;;;;2.53;1.77;;;12.30;96.30;;;;;;5044670;28;20032;-86
2022/05/23 02:22:32;;;;;;;3.22;1.98;;;12.30;96.40;;;;;;5044136;28;20029;-86
2022/05/23 02:24:57;;;;;;;3.17;1.92;;;12.30;96.50;;;;;;5045706;28;20036;-84
2022/05/23 02:27:23;;;;;;;3.03;1.70;;;12.20;96.50;;;;;;5052737;28;20075;-86
2022/05/23 02:29:48;;;;;;;4.50;2.20;;;12.20;96.50;;;;;;5055526;28;20079;-84
2022/05/23 02:32:14;;;;;;;3.20;1.52;;;12.20;96.70;;;;;;5046512;28;20032;-83
2022/05/23 02:34:41;;;;;;;2.33;1.95;;;12.10;96.80;;;;;;5052719;28;20067;-82
2022/05/23 02:37:07;;;;;;;4.00;1.77;;;12.20;96.80;;;;;;5045650;28;20032;-82
2022/05/23 02:39:33;;;;;;;5.28;1.88;;;12.10;96.80;;;;;;5048034;28;20033;-85
2022/05/23 02:41:58;;;;;;;4.03;2.20;;;12.10;96.90;;;;;;5046582;28;20530;-84
2022/05/23 02:44:24;;;;;;;2.70;1.77;;;12.10;96.90;;;;;;5043603;28;20141;-83
2022/05/23 02:46:49;;;;;;;2.78;1.77;;;12.10;96.90;;;;;;5049138;28;20703;-84
2022/05/23 02:49:15;;;;;;;2.78;1.90;;;12.10;97.00;;;;;;5048325;28;20028;-82
2022/05/23 02:51:40;;;;;;;2.28;1.85;;;12.00;97.10;;;;;;5048882;28;20021;-82
2022/05/23 02:54:06;;;;;;;3.80;2.08;;;12.00;97.10;;;;;;5045299;28;20430;-82
2022/05/23 02:56:33;;;;;;;1.98;1.67;;;12.00;97.10;;;;;;5040879;28;20475;-84
2022/05/23 02:58:58;;;;;;;2.45;1.80;;;12.00;97.20;;;;;;5048622;28;20032;-82
2022/05/23 03:01:24;;;;;;;2.83;1.85;;;12.00;97.20;;;;;;5047309;28;20055;-82
2022/05/23 03:03:49;;;;;;;4.20;2.58;;;11.90;97.40;;;;;;5047188;28;20035;-81
2022/05/23 03:06:15;;;;;;;3.75;1.75;;;11.90;97.30;;;;;;5048946;28;20041;-83
2022/05/23 03:08:41;;;;;;;3.95;2.10;;;11.90;97.20;;;;;;5049258;28;20486;-82
2022/05/23 03:11:08;;;;;;;3.42;2.08;;;11.90;97.30;;;;;;5046095;28;20057;-82
2022/05/23 03:13:34;;;;;;;3.95;1.80;;;11.90;97.30;;;;;;5043311;28;20102;-82
2022/05/23 03:16:00;;;;;;;5.82;2.35;;;11.90;97.40;;;;;;5048116;28;20035;-82
2022/05/23 03:18:26;;;;;;;2.53;2.10;;;11.90;97.40;;;;;;5049782;28;20025;-83
2022/05/23 03:21:03;;;;;;;2.65;1.58;;;11.80;97.50;;;;;;5048779;28;20151;-83
2022/05/23 03:29:00;;;;;;;4.10;1.88;;;11.90;97.60;;;;;;5039227;28;20116;-82
2022/05/23 03:31:27;;;;;;;2.95;2.03;;;11.80;97.60;;;;;;5048517;28;20021;-82
2022/05/23 03:33:53;;;;;;;2.25;2.00;;;11.80;97.80;;;;;;5048323;28;20534;-81
2022/05/23 03:36:19;;;;;;;3.03;2.05;;;11.90;97.80;;;;;;5048726;28;20116;-82
2022/05/23 03:38:44;;;;;;;3.75;2.33;;;11.90;97.80;;;;;;5048886;28;20029;-82
2022/05/23 03:41:10;;;;;;;2.70;2.08;;;11.90;97.70;;;;;;5045342;28;20465;-82
2022/05/23 03:43:37;;;;;;;3.70;2.25;;;12.00;97.70;;;;;;5037091;28;20021;-81
2022/05/23 03:46:13;;;;;;;3.15;1.95;;;11.90;97.70;;;;;;5046759;28;20029;-83
2022/05/23 03:48:40;;;;;;;3.67;1.95;;;12.00;97.60;;;;;;5048345;28;20120;-81
2022/05/23 03:51:07;;;;;;;5.47;2.47;;;12.00;97.70;;;;;;5046051;28;20045;-84
2022/05/23 03:53:33;;;;;;;4.80;2.30;;;12.00;97.60;;;;;;5047642;28;20025;-84
2022/05/23 03:55:59;;;;;;;2.75;1.90;;;12.10;97.60;;;;;;5048869;28;20587;-83
2022/05/23 03:58:26;;;;;;;6.07;2.80;;;12.10;97.50;;;;;;5049663;28;20395;-85
2022/05/23 04:00:51;;;;;;;4.68;2.55;;;12.10;97.50;;;;;;5046573;28;20037;-82
2022/05/23 04:03:18;;;;;;;5.00;2.53;;;12.20;97.50;;;;;;5038455;28;20301;-82
2022/05/23 04:05:44;;;;;;;4.20;2.47;;;12.30;97.50;;;;;;5048276;28;20494;-83
2022/05/23 04:08:11;;;;;;;2.67;2.30;;;12.30;97.40;;;;;;5047427;28;20123;-83
2022/05/23 04:10:39;;;;;;;4.03;2.22;;;12.40;97.30;;;;;;5048521;28;20079;-85
2022/05/23 04:13:05;;;;;;;4.53;2.67;;;12.40;97.20;;;;;;5047281;28;20439;-84
2022/05/23 04:15:30;;;;;;;3.67;1.83;;;12.60;97.20;;;;;;5047873;28;20037;-83
2022/05/23 04:17:56;;;;;;;2.58;2.20;;;12.60;97.10;;;;;;5048997;28;20040;-84
2022/05/23 04:20:22;;;;;;;3.17;2.03;;;12.70;96.90;;;;;;5047631;28;20816;-83
2022/05/23 04:22:48;;;;;;;5.13;2.25;;;12.90;96.80;;;;;;5048710;28;20104;-84
2022/05/23 04:25:15;;;;;;;6.40;2.38;;;13.00;96.80;;;;;;5048654;28;20140;-86
2022/05/23 04:27:40;;;;;;;4.07;2.35;;;13.20;96.50;;;;;;5046507;28;20102;-83
2022/05/23 04:30:08;;;;;;;2.88;2.10;;;13.30;96.40;;;;;;5057133;28;20720;-83
2022/05/23 04:35:21;;;;;;;3.47;2.30;;;13.60;95.70;;;;;;5047857;28;20458;-83
2022/05/23 04:37:49;;;;;;;2.58;2.00;;;13.70;95.10;;;;;;5046562;28;20115;-84
2022/05/23 04:40:18;;;;;;;3.28;2.15;;;13.70;94.80;;;;;;5044460;28;20033;-85
2022/05/23 04:42:44;;;;;;;2.72;2.15;;;13.90;94.80;;;;;;5040322;28;20079;-83
2022/05/23 04:45:11;;;;;;;4.28;2.00;;;14.00;94.60;;;;;;5046586;28;20033;-85
2022/05/23 04:50:20;;;;;;;6.10;2.03;;;14.20;94.40;;;;;;5046369;28;20044;-83
2022/05/23 04:52:47;;;;;;;7.03;2.38;;;14.30;93.90;;;;;;5041108;28;20029;-83
2022/05/23 04:55:14;;;;;;;2.78;1.83;;;14.40;94.30;;;;;;5045014;28;20029;-83
2022/05/23 04:57:39;;;;;;;2.75;1.85;;;14.50;94.10;;;;;;5046121;28;20067;-84
2022/05/23 05:00:09;;;;;;;4.82;2.00;;;14.50;94.10;;;;;;5044061;28;20456;-82
2022/05/23 05:02:36;;;;;;;3.30;1.85;;;14.60;94.00;;;;;;5041039;28;20029;-83
2022/05/23 05:05:03;;;;;;;5.30;2.00;;;14.70;93.90;;;;;;5044721;28;20024;-82
2022/05/23 05:07:28;;;;;;;3.08;1.90;;;14.70;93.70;;;;;;5046217;28;20047;-82
2022/05/23 05:09:54;;;;;;;3.60;1.83;;;14.80;93.30;;;;;;5044293;28;20024;-82
2022/05/23 05:12:20;;;;;;;4.20;2.20;;;14.90;92.70;;;;;;5039298;28;20475;-83
2022/05/23 05:14:46;;;;;;;3.80;2.13;;;15.00;93.00;;;;;;5044495;28;20483;-82
2022/05/23 05:17:12;;;;;;;6.07;2.08;;;15.10;92.30;;;;;;5035978;28;20061;-82
2022/05/23 05:19:38;;;;;;;2.63;1.55;;;15.10;92.40;;;;;;5045290;28;20059;-83
2022/05/23 05:22:04;;;;;;;3.22;1.50;;;15.20;92.20;;;;;;5043217;28;20029;-84
2022/05/23 05:24:32;;;;;;;3.78;1.55;;;15.30;92.20;;;;;;5039516;28;20615;-82
2022/05/23 05:27:01;;;;;;;6.90;2.00;;;15.40;92.20;;;;;;5040951;28;20036;-82
2022/05/23 05:29:27;;;;;;;3.28;1.75;;;15.60;92.30;;;;;;5041860;28;20400;-83
2022/05/23 05:32:00;;;;;;;3.78;1.60;;;15.70;92.20;;;;;;5050399;28;20035;-83
2022/05/23 05:34:30;;;;;;;;;;;15.80;91.60;;;;;;5046684;28;20716;-82
2022/05/23 05:37:00;;;;;;;4.43;1.58;;;16.00;91.20;;;;;;5047028;28;19912;-82
2022/05/23 05:39:31;;;;;;;2.17;1.23;;;16.10;91.40;;;;;;5054259;28;20025;-83
2022/05/23 05:42:05;;;;;;;4.97;1.45;;;16.20;91.20;;;;;;5040414;28;20053;-83
2022/05/23 05:44:35;;;;;;;2.58;1.52;;;16.30;91.10;;;;;;5045804;28;20064;-83
2022/05/23 05:47:08;;;;;;;4.88;1.55;;;16.40;90.70;;;;;;5034628;28;20037;-82
2022/05/23 05:49:37;;;;;;;6.50;1.52;;;16.50;91.10;;;;;;5049476;28;20056;-82
2022/05/23 05:52:03;;;;;;;2.22;1.20;;;16.50;91.20;;;;;;5058108;28;20032;-81
2022/05/23 05:54:30;;;;;;;4.30;1.63;;;16.60;90.50;;;;;;5045860;28;20132;-82
2022/05/23 05:56:58;;;;;;;3.00;1.58;;;16.70;90.50;;;;;;5047565;28;20422;-85
2022/05/23 05:59:24;;;;;;;3.10;1.60;;;16.70;90.20;;;;;;5048971;28;20025;-82
2022/05/23 06:01:50;;;;;;;2.65;1.45;;;16.80;90.10;;;;;;5050367;28;20036;-81
2022/05/23 06:04:16;;;;;;;3.38;1.50;;;16.90;90.00;;;;;;5066041;28;20392;-82
2022/05/23 06:12:09;;;;;;;3.47;1.35;;;17.10;89.80;;;;;;5039325;28;20063;-83
2022/05/23 06:14:35;;;;;;;3.70;1.42;;;17.20;90.10;;;;;;5050125;28;20486;-85
2022/05/23 06:17:00;;;;;;;1.55;1.08;;;17.30;89.80;;;;;;5049617;28;20039;-83
2022/05/23 06:19:26;;;;;;;2.60;1.38;;;17.40;89.20;;;;;;5048928;28;20132;-84
2022/05/23 06:21:52;;;;;;;2.03;1.20;;;17.40;88.30;;;;;;5048278;28;20021;-83
2022/05/23 06:24:17;;;;;;;2.70;1.48;;;17.50;89.40;;;;;;5050349;28;20048;-83
2022/05/23 06:26:44;;;;;;;3.80;1.35;;;17.70;89.40;;;;;;5048725;28;20091;-82
2022/05/23 06:29:10;;;;;;;5.38;1.45;;;17.80;87.60;;;;;;5049881;28;20597;-83
2022/05/23 06:31:35;;;;;;;4.95;1.63;;;17.90;88.10;;;;;;5047827;28;20064;-82
2022/05/23 06:34:01;;;;;;;3.38;1.40;;;18.00;88.50;;;;;;5049185;28;20112;-83
2022/05/23 06:36:26;;;;;;;6.90;1.52;;;18.10;88.70;;;;;;5047286;28;20124;-86
2022/05/23 06:38:52;;;;;;;3.95;1.60;;;18.20;87.40;;;;;;5050030;28;20051;-86
2022/05/23 06:41:18;;;;;;;3.95;1.55;;;18.30;87.40;;;;;;5049196;28;20033;-87
2022/05/23 06:43:44;;;;;;;2.03;1.10;;;18.40;88.40;;;;;;5049954;28;20525;-85
2022/05/23 06:46:12;;;;;;;4.43;1.40;;;18.40;88.20;;;;;;5048081;28;20051;-83
2022/05/23 06:48:38;;;;;;;8.75;1.80;;;18.40;87.30;;;;;;5044609;28;20056;-83
2022/05/23 06:51:05;;;;;;;4.35;2.35;;;18.50;88.40;;;;;;5064931;28;20621;-83
2022/05/23 06:53:30;;;;;;;4.05;1.65;;;18.50;87.70;;;;;;5063667;28;20075;-84
2022/05/23 06:55:56;;;;;;;6.90;1.83;;;18.50;86.90;;;;;;5048780;28;20403;-82
2022/05/23 06:58:22;;;;;;;2.63;1.33;;;18.70;86.70;;;;;;5047897;28;20033;-82
2022/05/23 07:00:49;;;;;;;3.83;1.85;;;18.70;87.40;;;;;;5049268;28;20074;-83
2022/05/23 07:03:15;;;;;;;3.42;1.40;;;18.80;88.00;;;;;;5063143;28;20147;-82
2022/05/23 07:13:55;;;;;;;3.53;1.08;;;19.10;86.80;;;;;;5032120;28;20040;-82
2022/05/23 07:16:22;;;;;;;2.75;1.20;;;19.30;87.50;;;;;;5036296;28;20102;-83
2022/05/23 07:18:47;;;;;;;2.47;1.00;;;19.40;86.40;;;;;;5033632;28;20110;-82
2022/05/23 07:21:13;;;;;;;2.30;1.30;;;19.50;86.80;;;;;;5031952;28;20025;-82
2022/05/23 07:23:39;;;;;;;6.25;1.33;;;19.60;86.40;;;;;;5044355;28;20116;-82
2022/05/23 07:26:06;;;;;;;4.43;1.38;;;19.70;86.70;;;;;;5028998;28;20029;-84
2022/05/23 07:28:32;;;;;;;2.67;0.93;;;19.80;85.90;;;;;;5063859;28;20143;-82
2022/05/23 07:30:58;;;;;;;2.30;1.00;;;19.90;83.80;;;;;;5049579;28;20530;-83
2022/05/23 07:33:24;;;;;;;5.28;1.52;;;19.90;85.00;;;;;;5048200;28;20533;-87
2022/05/23 07:35:58;;;;;;;6.38;1.40;;;20.10;83.10;;;;;;5047248;28;20044;-79
2022/05/23 07:38:24;;;;;;;4.13;1.58;;;20.10;84.50;;;;;;5049140;28;20367;-81
2022/05/23 07:40:53;;;;;;;10.23;1.60;;;20.30;84.50;;;;;;5048054;28;20029;-82
2022/05/23 07:43:19;;;;;;;2.50;0.98;;;20.30;83.90;;;;;;5048491;28;20130;-84
2022/05/23 07:45:47;;;;;;;4.43;1.50;;;20.40;83.30;;;;;;5062844;28;20024;-79
2022/05/23 07:48:12;;;;;;;1.92;1.00;;;20.50;83.30;;;;;;5046165;28;20474;-78
2022/05/23 07:50:38;;;;;;;4.65;1.15;;;20.60;84.20;;;;;;5047977;28;20045;-79
2022/05/23 08:01:16;;;;;;;8.40;1.15;;;20.90;80.60;;;;;;5028024;28;20079;-83
2022/05/23 08:03:42;;;;;;;2.63;1.08;;;20.90;81.00;;;;;;5027119;28;20664;-80
2022/05/23 08:06:09;;;;;;;4.05;1.17;;;21.00;82.80;;;;;;5059069;28;20108;-80
2022/05/23 08:08:35;;;;;;;2.35;1.00;;;21.00;82.50;;;;;;5046832;28;20053;-79
2022/05/23 08:11:01;;;;;;;4.70;1.55;;;21.00;81.80;;;;;;5045674;28;20037;-79
2022/05/23 08:13:27;;;;;;;2.35;1.30;;;21.00;79.70;;;;;;5043379;28;20029;-80
2022/05/23 08:15:52;;;;;;;1.88;1.02;;;21.10;80.50;;;;;;5034433;28;20039;-79
2022/05/23 08:18:18;;;;;;;7.13;1.05;;;21.00;80.80;;;;;;5045907;28;20033;-80
2022/05/23 08:20:44;;;;;;;3.08;1.02;;;21.00;81.60;;;;;;5047901;28;20029;-83
2022/05/23 08:23:10;;;;;;;2.97;1.33;;;21.00;80.00;;;;;;5043237;28;20030;-80
2022/05/23 08:25:37;;;;;;;2.35;1.48;;;21.00;82.50;;;;;;5040504;28;20387;-80
2022/05/23 08:28:03;;;;;;;5.32;1.40;;;21.00;81.10;;;;;;5047731;28;20041;-78
2022/05/23 08:30:28;;;;;;;4.18;1.23;;;21.10;81.50;;;;;;5046437;28;20156;-80
2022/05/23 08:32:54;;;;;;;5.13;1.65;;;21.20;81.20;;;;;;5046097;28;20584;-78
2022/05/23 08:35:21;;;;;;;3.10;1.00;;;21.30;82.20;;;;;;5045257;28;20029;-81
2022/05/23 08:37:47;;;;;;;3.72;1.08;;;21.30;81.30;;;;;;5050052;28;20398;-82
2022/05/23 08:40:13;;;;;;;3.22;1.60;;;21.40;82.30;;;;;;5052248;28;20090;-82
2022/05/23 08:42:56;;;;;;;2.55;0.90;;;21.50;81.10;;;;;;5046427;28;20537;-80
2022/05/23 08:45:30;;;;;;;3.63;1.17;;;21.70;82.80;;;;;;5047545;28;20036;-79
2022/05/23 08:48:30;;;;;;;7.25;1.20;;;21.90;82.90;;;;;;5048056;28;20044;-82
2022/05/23 08:51:12;;;;;;;2.90;0.90;;;22.10;81.80;;;;;;5049571;28;20041;-80
2022/05/23 08:53:48;;;;;;;2.47;0.90;;;22.30;79.90;;;;;;5030811;28;20037;-79
2022/05/23 08:56:26;;;;;;;3.22;1.20;;;22.30;80.00;;;;;;5041306;28;20124;-77
2022/05/23 08:58:58;;;;;;;2.72;0.80;;;22.40;77.90;;;;;;5050725;28;20068;-82
2022/05/23 09:01:31;;;;;;;2.58;1.05;;;22.60;79.80;;;;;;5046242;28;20112;-80
2022/05/23 09:03:56;;;;;;;1.90;0.95;;;22.70;79.40;;;;;;5049791;28;20048;-79
2022/05/23 09:06:31;;;;;;;2.53;0.88;;;22.70;78.90;;;;;;5039928;28;20468;-78
2022/05/23 09:09:06;;;;;;;2.75;0.65;;;22.90;81.00;;;;;;5031839;28;20124;-79
2022/05/23 09:11:40;;;;;;;4.40;1.48;;;23.00;77.70;;;;;;5049828;28;20033;-79
2022/05/23 09:14:09;;;;;;;1.85;0.98;;;23.20;79.40;;;;;;5050897;28;20414;-83
2022/05/23 09:16:40;;;;;;;3.88;0.75;;;23.30;78.40;;;;;;5042581;28;20059;-83
2022/05/23 09:19:16;;;;;;;1.65;0.65;;;23.40;79.00;;;;;;5031626;28;20026;-78
2022/05/23 09:24:39;;;;;;;3.28;0.98;;;23.50;79.20;;;;;;5048295;28;20099;-79
2022/05/23 09:27:23;;;;;;;2.13;0.82;;;23.50;79.10;;;;;;5050044;28;20526;-79
2022/05/23 09:29:52;;;;;;;2.70;1.00;;;23.50;79.40;;;;;;5049765;28;20120;-81
2022/05/23 09:32:19;;;;;;;2.65;1.20;;;23.60;79.00;;;;;;5049871;28;20466;-79
2022/05/23 09:34:49;;;;;;;2.28;1.08;;;23.60;78.50;;;;;;5051074;28;20091;-83
2022/05/23 09:37:20;;;;;;;1.77;0.70;;;23.70;78.40;;;;;;5042376;28;20456;-79
2022/05/23 09:39:55;;;;;;;1.63;0.70;;;23.70;74.60;;;;;;5041620;28;20099;-77
2022/05/23 09:48:15;;;;;;;1.85;0.90;;;24.00;75.70;;;;;;5049116;28;20083;-79
2022/05/23 09:50:44;;;;;;;4.13;0.80;;;24.20;78.60;;;;;;5050534;28;20112;-80
2022/05/23 09:53:16;;;;;;;4.78;0.98;;;24.30;76.60;;;;;;5050301;28;20029;-80
2022/05/23 09:55:41;;;;;;;3.00;0.80;;;24.50;78.90;;;;;;5048658;28;20048;-79
2022/05/23 09:58:09;;;;;;;2.70;0.90;;;24.80;76.50;;;;;;5042620;28;20032;-81
2022/05/23 10:00:57;;;;;;;4.65;1.10;;;25.00;76.80;;;;;;5048277;28;20647;-79
2022/05/23 10:03:24;;;;;;;5.15;0.82;;;25.20;76.00;;;;;;5050725;28;20029;-80
2022/05/23 10:06:14;;;;;;;4.43;1.20;;;25.20;71.10;;;;;;5038718;28;20029;-79
2022/05/23 10:08:45;;;;;;;2.80;0.73;;;25.20;73.30;;;;;;5047760;28;20090;-79
2022/05/23 10:11:35;;;;;;;2.47;1.20;;;25.00;72.30;;;;;;5048824;28;20043;-78
2022/05/23 10:14:14;;;;;;;4.85;1.00;;;24.90;72.60;;;;;;5048838;28;20025;-79
2022/05/23 10:16:54;;;;;;;2.78;0.85;;;24.70;72.30;;;;;;5048305;28;20025;-79
2022/05/23 10:19:35;;;;;;;7.03;1.10;;;24.50;71.70;;;;;;5048730;28;20061;-79
2022/05/23 10:22:15;;;;;;;2.80;1.08;;;24.20;75.00;;;;;;5064442;28;20121;-80
2022/05/23 10:25:05;;;;;;;1.83;0.90;;;24.10;74.90;;;;;;5048235;28;20025;-80
2022/05/23 10:27:51;;;;;;;3.47;0.80;;;24.10;72.50;;;;;;5036823;28;20040;-81
2022/05/23 10:30:20;;;;;;;3.63;0.98;;;24.20;73.70;;;;;;5049658;28;20476;-82
2022/05/23 10:32:48;;;;;;;2.30;1.20;;;24.40;74.60;;;;;;5047267;28;20033;-81
2022/05/23 10:35:36;;;;;;;1.65;0.70;;;24.60;75.50;;;;;;5048571;28;20375;-84
2022/05/23 10:43:58;;;;;;;3.33;1.00;;;25.00;73.40;;;;;;5046833;28;20142;-80
2022/05/23 10:46:27;;;;;;;3.30;0.95;;;25.10;72.40;;;;;;5049506;28;20061;-81
2022/05/23 10:49:14;;;;;;;1.73;0.60;;;25.20;71.80;;;;;;5051115;28;20087;-82
2022/05/23 10:52:06;;;;;;;8.30;0.80;;;25.40;70.50;;;;;;5049222;28;20067;-81
2022/05/23 10:54:57;;;;;;;;;;;25.50;69.50;;;;;;5049091;28;20029;-85
2022/05/23 10:57:51;;;;;;;2.60;0.60;;;25.70;71.60;;;;;;5056037;28;19909;-83
2022/05/23 11:00:22;;;;;;;1.40;0.70;;;25.70;67.90;;;;;;5046174;28;20029;-80
2022/05/23 11:03:06;;;;;;;2.80;0.70;;;25.90;68.90;;;;;;5048738;28;20022;-79
2022/05/23 11:05:43;;;;;;;1.88;0.90;;;26.00;67.40;;;;;;5049466;28;20093;-80
2022/05/23 11:08:15;;;;;;;1.08;0.40;;;26.10;66.40;;;;;;5049510;28;20033;-80
2022/05/23 11:10:56;;;;;;;1.50;0.70;;;26.10;67.40;;;;;;5048550;28;20045;-79
2022/05/23 11:13:49;;;;;;;2.08;0.80;;;26.20;64.10;;;;;;5029620;28;20387;-84
2022/05/23 11:16:52;;;;;;;3.40;0.95;;;26.10;67.40;;;;;;5030780;28;20376;-79
2022/05/23 11:19:45;;;;;;;;;;;26.10;64.90;;;;;;5048694;28;20029;-80
2022/05/23 11:22:28;;;;;;;1.73;0.80;;;26.00;69.30;;;;;;5048672;28;19919;-82
2022/05/23 11:25:17;;;;;;;3.38;0.73;;;26.10;66.60;;;;;;5050115;28;20036;-81
2022/05/23 11:33:58;;;;;;;5.65;0.68;;;26.90;67.30;;;;;;5033286;28;20055;-80
2022/05/23 11:39:41;;;;;;;3.33;0.90;;;27.10;65.50;;;;;;5040431;28;20040;-78
2022/05/23 11:42:11;;;;;;;1.77;0.60;;;27.30;64.80;;;;;;5046165;28;20115;-84
2022/05/23 11:44:43;;;;;;;4.85;0.75;;;27.30;64.30;;;;;;5051349;28;20076;-80
2022/05/23 11:47:12;;;;;;;1.67;0.60;;;27.20;65.10;;;;;;5048986;28;20029;-79
2022/05/23 11:49:46;;;;;;;3.65;0.80;;;27.20;64.20;;;;;;5050731;28;20044;-79
2022/05/23 11:52:25;;;;;;;1.90;0.70;;;27.30;67.00;;;;;;5063919;28;20033;-83
2022/05/23 11:54:51;;;;;;;2.80;0.90;;;27.20;62.70;;;;;;5049610;28;20100;-82
2022/05/23 11:57:31;;;;;;;1.90;0.60;;;27.10;63.20;;;;;;5047159;28;20116;-82
2022/05/23 11:59:58;;;;;;;2.53;0.70;;;27.10;64.50;;;;;;5039105;28;20601;-82
2022/05/23 12:02:27;;;;;;;1.75;0.70;;;27.10;62.20;;;;;;5031331;28;20087;-82
2022/05/23 12:04:54;;;;;;;3.22;1.05;;;27.20;62.80;;;;;;5047343;28;20025;-83
2022/05/23 12:07:34;;;;;;;2.20;0.98;;;27.20;64.70;;;;;;5047141;28;20735;-83
2022/05/23 12:10:26;;;;;;;2.35;0.70;;;27.30;61.90;;;;;;5045781;28;20039;-83
2022/05/23 12:13:36;;;;;;;3.33;1.00;;;27.30;63.50;;;;;;5056894;28;20041;-82
2022/05/23 12:16:37;;;;;;;1.10;0.70;;;27.30;64.90;;;;;;5048404;28;20079;-82
2022/05/23 12:19:20;;;;;;;2.83;0.90;;;27.30;64.10;;;;;;5064305;28;20040;-82
2022/05/23 12:21:47;;;;;;;2.42;0.70;;;27.20;63.20;;;;;;5042781;28;20033;-82
2022/05/23 12:24:27;;;;;;;2.78;0.95;;;27.10;64.30;;;;;;5027826;28;20064;-82
2022/05/23 12:26:55;;;;;;;3.72;0.80;;;27.00;64.40;;;;;;5047678;28;20036;-83
2022/05/23 12:29:32;;;;;;;3.10;0.90;;;27.00;64.00;;;;;;5046987;28;20029;-82
2022/05/23 12:32:17;;;;;;;2.15;0.80;;;27.00;64.20;;;;;;5047012;28;20057;-82
2022/05/23 12:34:46;;;;;;;1.60;0.60;;;27.00;64.70;;;;;;5049314;28;20075;-82
2022/05/23 12:37:20;;;;;;;2.10;0.80;;;27.10;63.30;;;;;;5047266;28;20036;-82
2022/05/23 12:39:51;;;;;;;1.05;0.63;;;27.00;59.90;;;;;;5046889;28;20041;-85
2022/05/23 12:42:55;;;;;;;1.58;0.93;;;27.00;59.80;;;;;;5047444;28;21202;-83
2022/05/23 12:45:42;;;;;;;3.72;0.98;;;27.10;59.40;;;;;;5038878;28;20107;-83
2022/05/23 12:48:41;;;;;;;3.20;0.93;;;27.10;61.80;;;;;;5030267;28;20021;-82
2022/05/23 12:51:14;;;;;;;2.90;0.82;;;27.20;59.60;;;;;;5050598;28;20025;-83
2022/05/23 12:54:02;;;;;;;7.85;0.90;;;27.20;58.50;;;;;;5053624;28;20044;-81
2022/05/23 12:57:05;;;;;;;1.48;0.70;;;27.10;59.90;;;;;;5066074;28;20055;-78
2022/05/23 12:59:39;;;;;;;9.50;0.80;;;27.20;59.10;;;;;;5059373;28;20056;-84
2022/05/23 13:02:27;;;;;;;5.50;0.88;;;27.00;58.30;;;;;;5043523;28;20072;-82
2022/05/23 13:04:59;;;;;;;6.93;1.13;;;27.00;58.50;;;;;;5037447;28;20041;-82
2022/05/23 13:07:46;;;;;;;3.38;0.75;;;26.80;59.40;;;;;;5046974;28;20394;-85
2022/05/23 13:10:18;;;;;;;5.22;1.05;;;26.70;59.60;;;;;;5048049;28;20029;-83
2022/05/23 13:13:12;;;;;;;1.85;1.10;;;26.60;59.10;;;;;;5046884;28;20033;-80
2022/05/23 13:15:38;;;;;;;4.60;1.10;;;26.50;60.00;;;;;;5053955;28;20059;-83
2022/05/23 13:22:05;;;;;;;2.95;1.00;;;26.40;61.90;;;;;;5029208;28;20061;-82
2022/05/23 13:23:44;;;;;;;4.43;1.02;;;26.50;60.60;;;;;;5048331;28;20039;-84
2022/05/23 13:26:11;;;;;;;3.25;0.70;;;26.50;62.10;;;;;;5044952;28;20094;-84
2022/05/23 13:28:42;;;;;;;7.22;1.00;;;26.50;61.00;;;;;;5047550;28;20029;-84
2022/05/23 13:31:27;;;;;;;2.65;0.80;;;26.50;61.10;;;;;;5041205;28;20025;-84
2022/05/23 13:33:55;;;;;;;3.33;0.65;;;26.40;61.70;;;;;;5041130;28;20033;-84
2022/05/23 13:36:23;;;;;;;2.22;0.88;;;26.30;61.60;;;;;;5059657;28;20056;-86
2022/05/23 13:39:03;;;;;;;2.33;0.85;;;26.30;62.30;;;;;;5047207;28;20115;-83
2022/05/23 13:41:31;;;;;;;2.38;1.05;;;26.20;63.30;;;;;;5043056;28;20064;-85
2022/05/23 13:43:57;;;;;;;2.42;1.00;;;26.10;62.60;;;;;;5045251;28;20045;-84
2022/05/23 13:46:27;;;;;;;2.42;0.90;;;26.00;61.00;;;;;;5045654;28;20033;-84
2022/05/23 13:49:00;;;;;;;2.50;0.80;;;25.90;62.60;;;;;;5045579;28;20025;-84
2022/05/23 13:51:42;;;;;;;5.60;1.08;;;25.80;62.40;;;;;;5064683;28;20151;-85
2022/05/23 13:54:16;;;;;;;5.35;1.05;;;25.80;64.00;;;;;;5051206;28;20021;-85
2022/05/23 13:56:47;;;;;;;4.22;1.27;;;25.70;65.00;;;;;;5050513;28;20387;-84
2022/05/23 13:59:27;;;;;;;3.47;0.73;;;25.50;64.10;;;;;;5051661;28;20028;-83
2022/05/23 14:02:00;;;;;;;2.20;0.90;;;25.40;63.70;;;;;;5051844;28;20482;-84
2022/05/23 14:04:28;;;;;;;2.13;0.90;;;25.40;64.40;;;;;;5032512;28;20032;-83
2022/05/23 14:07:07;;;;;;;2.40;1.02;;;25.20;63.80;;;;;;5047746;28;20021;-84
2022/05/23 14:09:34;;;;;;;2.10;1.02;;;25.20;66.00;;;;;;5051372;28;20475;-84
2022/05/23 14:12:09;;;;;;;1.48;0.80;;;25.00;65.80;;;;;;5050302;28;20028;-83